sensor_id;sensor_type;location;lat;lon;timestamp;P1;durP1;ratioP1;P2;durP2;ratioP2
2748;SDS011;1382;52.142;11.618;2023-02-23T00:01:33;14.40;;;5.93;;
2748;SDS011;1382;52.142;11.618;2023-02-23T00:03:59;16.10;;;5.90;;
2748;SDS011;1382;52.142;11.618;2023-02-23T00:06:28;9.80;;;4.00;;
2748;SDS011;1382;52.142;11.618;2023-02-23T00:08:56;9.70;;;5.10;;
2748;SDS011;1382;52.142;11.618;2023-02-23T00:11:23;10.20;;;4.77;;
2748;SDS011;1382;52.142;11.618;2023-02-23T00:13:49;12.00;;;5.53;;
2748;SDS011;1382;52.142;11.618;2023-02-23T00:16:17;10.63;;;5.00;;
2748;SDS011;1382;52.142;11.618;2023-02-23T00:18:47;7.53;;;4.83;;
2748;SDS011;1382;52.142;11.618;2023-02-23T00:21:16;15.20;;;6.47;;
2748;SDS011;1382;52.142;11.618;2023-02-23T00:23:49;15.73;;;5.83;;
2748;SDS011;1382;52.142;11.618;2023-02-23T00:26:18;9.37;;;5.20;;
2748;SDS011;1382;52.142;11.618;2023-02-23T00:28:45;9.80;;;5.00;;
2748;SDS011;1382;52.142;11.618;2023-02-23T00:31:13;10.97;;;4.70;;
2748;SDS011;1382;52.142;11.618;2023-02-23T00:33:40;11.37;;;5.90;;
2748;SDS011;1382;52.142;11.618;2023-02-23T00:36:07;14.43;;;5.03;;
2748;SDS011;1382;52.142;11.618;2023-02-23T00:38:36;12.33;;;6.60;;
2748;SDS011;1382;52.142;11.618;2023-02-23T00:41:06;8.33;;;4.60;;
2748;SDS011;1382;52.142;11.618;2023-02-23T00:43:35;13.97;;;5.97;;
2748;SDS011;1382;52.142;11.618;2023-02-23T00:46:02;9.00;;;4.93;;
2748;SDS011;1382;52.142;11.618;2023-02-23T00:48:30;17.20;;;6.03;;
2748;SDS011;1382;52.142;11.618;2023-02-23T00:50:58;9.97;;;5.97;;
2748;SDS011;1382;52.142;11.618;2023-02-23T00:53:25;14.87;;;5.90;;
2748;SDS011;1382;52.142;11.618;2023-02-23T00:55:51;16.53;;;6.30;;
2748;SDS011;1382;52.142;11.618;2023-02-23T00:58:19;10.23;;;4.87;;
2748;SDS011;1382;52.142;11.618;2023-02-23T01:00:46;11.80;;;5.27;;
2748;SDS011;1382;52.142;11.618;2023-02-23T01:03:13;11.60;;;5.47;;
2748;SDS011;1382;52.142;11.618;2023-02-23T01:05:40;10.53;;;5.90;;
2748;SDS011;1382;52.142;11.618;2023-02-23T01:08:07;10.93;;;6.30;;
2748;SDS011;1382;52.142;11.618;2023-02-23T01:10:33;17.30;;;6.87;;
2748;SDS011;1382;52.142;11.618;2023-02-23T01:13:04;12.90;;;5.63;;
2748;SDS011;1382;52.142;11.618;2023-02-23T01:15:32;8.20;;;3.70;;
2748;SDS011;1382;52.142;11.618;2023-02-23T01:17:59;9.57;;;5.60;;
2748;SDS011;1382;52.142;11.618;2023-02-23T01:20:26;13.20;;;5.13;;
2748;SDS011;1382;52.142;11.618;2023-02-23T01:22:53;19.30;;;6.90;;
2748;SDS011;1382;52.142;11.618;2023-02-23T01:25:19;9.90;;;4.60;;
2748;SDS011;1382;52.142;11.618;2023-02-23T01:27:46;9.37;;;4.83;;
2748;SDS011;1382;52.142;11.618;2023-02-23T01:30:13;20.43;;;4.40;;
2748;SDS011;1382;52.142;11.618;2023-02-23T01:32:41;10.90;;;4.83;;
2748;SDS011;1382;52.142;11.618;2023-02-23T01:35:09;19.03;;;5.03;;
2748;SDS011;1382;52.142;11.618;2023-02-23T01:37:37;7.87;;;4.40;;
2748;SDS011;1382;52.142;11.618;2023-02-23T01:40:06;9.57;;;4.17;;
2748;SDS011;1382;52.142;11.618;2023-02-23T01:42:37;12.60;;;6.53;;
2748;SDS011;1382;52.142;11.618;2023-02-23T01:47:51;8.73;;;5.30;;
2748;SDS011;1382;52.142;11.618;2023-02-23T01:50:20;9.77;;;5.77;;
2748;SDS011;1382;52.142;11.618;2023-02-23T01:52:49;10.07;;;5.40;;
2748;SDS011;1382;52.142;11.618;2023-02-23T01:55:17;9.97;;;4.10;;
2748;SDS011;1382;52.142;11.618;2023-02-23T01:57:45;9.67;;;5.30;;
2748;SDS011;1382;52.142;11.618;2023-02-23T02:00:12;11.73;;;4.40;;
2748;SDS011;1382;52.142;11.618;2023-02-23T02:02:40;7.23;;;3.97;;
2748;SDS011;1382;52.142;11.618;2023-02-23T02:05:08;15.23;;;4.97;;
2748;SDS011;1382;52.142;11.618;2023-02-23T02:07:35;7.77;;;4.20;;
2748;SDS011;1382;52.142;11.618;2023-02-23T02:10:02;8.37;;;5.37;;
2748;SDS011;1382;52.142;11.618;2023-02-23T02:12:30;16.00;;;5.27;;
2748;SDS011;1382;52.142;11.618;2023-02-23T02:14:58;9.60;;;4.73;;
2748;SDS011;1382;52.142;11.618;2023-02-23T02:17:27;7.40;;;3.40;;
2748;SDS011;1382;52.142;11.618;2023-02-23T02:23:11;15.67;;;5.40;;
2748;SDS011;1382;52.142;11.618;2023-02-23T02:26:01;7.10;;;4.90;;
2748;SDS011;1382;52.142;11.618;2023-02-23T02:28:41;8.10;;;4.43;;
2748;SDS011;1382;52.142;11.618;2023-02-23T02:34:46;8.77;;;4.67;;
2748;SDS011;1382;52.142;11.618;2023-02-23T02:37:33;10.13;;;4.50;;
2748;SDS011;1382;52.142;11.618;2023-02-23T02:40:15;8.27;;;3.80;;
2748;SDS011;1382;52.142;11.618;2023-02-23T02:42:58;8.10;;;4.27;;
2748;SDS011;1382;52.142;11.618;2023-02-23T02:45:27;8.60;;;4.63;;
2748;SDS011;1382;52.142;11.618;2023-02-23T02:48:02;7.10;;;3.93;;
2748;SDS011;1382;52.142;11.618;2023-02-23T02:50:38;6.23;;;3.70;;
2748;SDS011;1382;52.142;11.618;2023-02-23T02:53:10;8.67;;;5.03;;
2748;SDS011;1382;52.142;11.618;2023-02-23T02:55:42;7.97;;;4.03;;
2748;SDS011;1382;52.142;11.618;2023-02-23T02:58:11;8.60;;;4.40;;
2748;SDS011;1382;52.142;11.618;2023-02-23T03:00:38;12.90;;;4.47;;
2748;SDS011;1382;52.142;11.618;2023-02-23T03:03:07;8.87;;;4.07;;
2748;SDS011;1382;52.142;11.618;2023-02-23T03:05:51;7.77;;;3.30;;
2748;SDS011;1382;52.142;11.618;2023-02-23T03:08:21;7.30;;;4.23;;
2748;SDS011;1382;52.142;11.618;2023-02-23T03:10:54;9.30;;;4.80;;
2748;SDS011;1382;52.142;11.618;2023-02-23T03:13:31;7.13;;;3.63;;
2748;SDS011;1382;52.142;11.618;2023-02-23T03:16:09;10.17;;;4.70;;
2748;SDS011;1382;52.142;11.618;2023-02-23T03:18:47;7.60;;;3.83;;
2748;SDS011;1382;52.142;11.618;2023-02-23T03:21:21;6.03;;;4.27;;
2748;SDS011;1382;52.142;11.618;2023-02-23T03:23:53;6.20;;;4.00;;
2748;SDS011;1382;52.142;11.618;2023-02-23T03:26:29;10.63;;;4.83;;
2748;SDS011;1382;52.142;11.618;2023-02-23T03:29:02;6.40;;;3.23;;
2748;SDS011;1382;52.142;11.618;2023-02-23T03:31:36;13.50;;;5.80;;
2748;SDS011;1382;52.142;11.618;2023-02-23T03:34:08;12.53;;;5.00;;
2748;SDS011;1382;52.142;11.618;2023-02-23T03:36:36;9.27;;;5.13;;
2748;SDS011;1382;52.142;11.618;2023-02-23T03:39:11;8.83;;;4.40;;
2748;SDS011;1382;52.142;11.618;2023-02-23T03:41:42;11.40;;;4.03;;
2748;SDS011;1382;52.142;11.618;2023-02-23T03:44:12;7.77;;;4.13;;
2748;SDS011;1382;52.142;11.618;2023-02-23T03:46:42;6.97;;;3.40;;
2748;SDS011;1382;52.142;11.618;2023-02-23T03:49:12;10.47;;;4.53;;
2748;SDS011;1382;52.142;11.618;2023-02-23T03:51:40;7.90;;;3.77;;
2748;SDS011;1382;52.142;11.618;2023-02-23T03:54:14;9.70;;;4.03;;
2748;SDS011;1382;52.142;11.618;2023-02-23T03:56:44;6.43;;;3.30;;
2748;SDS011;1382;52.142;11.618;2023-02-23T03:59:13;7.70;;;4.27;;
2748;SDS011;1382;52.142;11.618;2023-02-23T04:01:43;6.23;;;3.60;;
2748;SDS011;1382;52.142;11.618;2023-02-23T04:04:11;8.77;;;3.87;;
2748;SDS011;1382;52.142;11.618;2023-02-23T04:06:38;8.67;;;4.10;;
2748;SDS011;1382;52.142;11.618;2023-02-23T04:09:08;7.30;;;3.77;;
2748;SDS011;1382;52.142;11.618;2023-02-23T04:11:39;8.73;;;3.73;;
2748;SDS011;1382;52.142;11.618;2023-02-23T04:14:14;8.73;;;4.20;;
2748;SDS011;1382;52.142;11.618;2023-02-23T04:16:44;11.60;;;4.70;;
2748;SDS011;1382;52.142;11.618;2023-02-23T04:19:12;10.33;;;4.17;;
2748;SDS011;1382;52.142;11.618;2023-02-23T04:21:39;10.63;;;3.90;;
2748;SDS011;1382;52.142;11.618;2023-02-23T04:24:06;11.10;;;4.50;;
2748;SDS011;1382;52.142;11.618;2023-02-23T04:26:32;8.83;;;3.80;;
2748;SDS011;1382;52.142;11.618;2023-02-23T04:29:00;8.20;;;4.60;;
2748;SDS011;1382;52.142;11.618;2023-02-23T04:31:27;8.47;;;4.50;;
2748;SDS011;1382;52.142;11.618;2023-02-23T04:33:54;13.90;;;5.80;;
2748;SDS011;1382;52.142;11.618;2023-02-23T04:36:21;7.80;;;4.37;;
2748;SDS011;1382;52.142;11.618;2023-02-23T04:38:47;7.80;;;4.80;;
2748;SDS011;1382;52.142;11.618;2023-02-23T04:41:14;6.50;;;3.47;;
2748;SDS011;1382;52.142;11.618;2023-02-23T04:43:41;8.37;;;4.50;;
2748;SDS011;1382;52.142;11.618;2023-02-23T04:46:09;9.23;;;4.83;;
2748;SDS011;1382;52.142;11.618;2023-02-23T04:48:35;8.10;;;4.17;;
2748;SDS011;1382;52.142;11.618;2023-02-23T04:51:02;5.53;;;4.10;;
2748;SDS011;1382;52.142;11.618;2023-02-23T04:53:29;7.20;;;4.80;;
2748;SDS011;1382;52.142;11.618;2023-02-23T04:55:56;15.13;;;4.33;;
2748;SDS011;1382;52.142;11.618;2023-02-23T04:58:22;9.87;;;4.53;;
2748;SDS011;1382;52.142;11.618;2023-02-23T05:00:49;7.33;;;3.27;;
2748;SDS011;1382;52.142;11.618;2023-02-23T05:03:17;8.33;;;5.33;;
2748;SDS011;1382;52.142;11.618;2023-02-23T05:05:44;12.17;;;5.00;;
2748;SDS011;1382;52.142;11.618;2023-02-23T05:08:11;10.27;;;5.17;;
2748;SDS011;1382;52.142;11.618;2023-02-23T05:10:37;10.57;;;4.60;;
2748;SDS011;1382;52.142;11.618;2023-02-23T05:13:05;8.17;;;4.40;;
2748;SDS011;1382;52.142;11.618;2023-02-23T05:15:32;11.87;;;4.60;;
2748;SDS011;1382;52.142;11.618;2023-02-23T05:17:59;13.57;;;5.30;;
2748;SDS011;1382;52.142;11.618;2023-02-23T05:20:27;9.57;;;4.60;;
2748;SDS011;1382;52.142;11.618;2023-02-23T05:22:53;8.00;;;3.57;;
2748;SDS011;1382;52.142;11.618;2023-02-23T05:25:20;9.13;;;3.37;;
2748;SDS011;1382;52.142;11.618;2023-02-23T05:27:47;6.80;;;5.03;;
2748;SDS011;1382;52.142;11.618;2023-02-23T05:30:14;9.77;;;3.77;;
2748;SDS011;1382;52.142;11.618;2023-02-23T05:32:41;11.10;;;5.70;;
2748;SDS011;1382;52.142;11.618;2023-02-23T05:35:08;14.63;;;6.60;;
2748;SDS011;1382;52.142;11.618;2023-02-23T05:37:36;8.00;;;4.87;;
2748;SDS011;1382;52.142;11.618;2023-02-23T05:40:03;11.20;;;4.60;;
2748;SDS011;1382;52.142;11.618;2023-02-23T05:42:30;9.40;;;4.40;;
2748;SDS011;1382;52.142;11.618;2023-02-23T05:44:57;12.73;;;4.57;;
2748;SDS011;1382;52.142;11.618;2023-02-23T05:47:24;10.70;;;4.90;;
2748;SDS011;1382;52.142;11.618;2023-02-23T05:49:50;8.40;;;5.07;;
2748;SDS011;1382;52.142;11.618;2023-02-23T05:52:17;10.63;;;5.50;;
2748;SDS011;1382;52.142;11.618;2023-02-23T05:54:45;8.53;;;5.43;;
2748;SDS011;1382;52.142;11.618;2023-02-23T05:57:12;10.03;;;7.00;;
2748;SDS011;1382;52.142;11.618;2023-02-23T05:59:38;8.00;;;5.17;;
2748;SDS011;1382;52.142;11.618;2023-02-23T06:02:05;12.10;;;6.63;;
2748;SDS011;1382;52.142;11.618;2023-02-23T06:04:32;14.33;;;5.50;;
2748;SDS011;1382;52.142;11.618;2023-02-23T06:06:59;12.13;;;5.60;;
2748;SDS011;1382;52.142;11.618;2023-02-23T06:09:26;7.40;;;4.40;;
2748;SDS011;1382;52.142;11.618;2023-02-23T06:11:54;13.00;;;6.67;;
2748;SDS011;1382;52.142;11.618;2023-02-23T06:14:20;16.60;;;6.27;;
2748;SDS011;1382;52.142;11.618;2023-02-23T06:16:47;15.20;;;5.20;;
2748;SDS011;1382;52.142;11.618;2023-02-23T06:19:14;25.50;;;8.97;;
2748;SDS011;1382;52.142;11.618;2023-02-23T06:21:40;16.27;;;5.83;;
2748;SDS011;1382;52.142;11.618;2023-02-23T06:24:07;23.27;;;8.20;;
2748;SDS011;1382;52.142;11.618;2023-02-23T06:26:34;25.03;;;8.00;;
2748;SDS011;1382;52.142;11.618;2023-02-23T06:29:02;16.13;;;6.80;;
2748;SDS011;1382;52.142;11.618;2023-02-23T06:31:29;43.50;;;12.80;;
2748;SDS011;1382;52.142;11.618;2023-02-23T06:33:55;45.00;;;11.47;;
2748;SDS011;1382;52.142;11.618;2023-02-23T06:36:22;42.00;;;11.20;;
2748;SDS011;1382;52.142;11.618;2023-02-23T06:38:49;42.60;;;11.60;;
2748;SDS011;1382;52.142;11.618;2023-02-23T06:41:15;15.17;;;6.67;;
2748;SDS011;1382;52.142;11.618;2023-02-23T06:43:42;22.47;;;8.87;;
2748;SDS011;1382;52.142;11.618;2023-02-23T06:46:10;14.47;;;6.97;;
2748;SDS011;1382;52.142;11.618;2023-02-23T06:48:37;19.03;;;7.83;;
2748;SDS011;1382;52.142;11.618;2023-02-23T06:51:04;22.73;;;10.10;;
2748;SDS011;1382;52.142;11.618;2023-02-23T06:53:31;20.63;;;10.47;;
2748;SDS011;1382;52.142;11.618;2023-02-23T06:55:58;24.50;;;8.43;;
2748;SDS011;1382;52.142;11.618;2023-02-23T06:58:24;14.77;;;9.03;;
2748;SDS011;1382;52.142;11.618;2023-02-23T07:00:53;26.40;;;9.00;;
2748;SDS011;1382;52.142;11.618;2023-02-23T07:03:21;20.80;;;9.20;;
2748;SDS011;1382;52.142;11.618;2023-02-23T07:05:48;24.83;;;10.53;;
2748;SDS011;1382;52.142;11.618;2023-02-23T07:08:15;16.60;;;9.40;;
2748;SDS011;1382;52.142;11.618;2023-02-23T07:10:41;23.67;;;10.17;;
2748;SDS011;1382;52.142;11.618;2023-02-23T07:13:08;18.13;;;10.03;;
2748;SDS011;1382;52.142;11.618;2023-02-23T07:15:35;10.73;;;6.60;;
2748;SDS011;1382;52.142;11.618;2023-02-23T07:18:02;16.73;;;8.70;;
2748;SDS011;1382;52.142;11.618;2023-02-23T07:20:30;25.43;;;8.27;;
2748;SDS011;1382;52.142;11.618;2023-02-23T07:22:57;16.00;;;8.67;;
2748;SDS011;1382;52.142;11.618;2023-02-23T07:25:24;14.87;;;7.97;;
2748;SDS011;1382;52.142;11.618;2023-02-23T07:27:51;18.47;;;9.40;;
2748;SDS011;1382;52.142;11.618;2023-02-23T07:30:18;18.33;;;9.03;;
2748;SDS011;1382;52.142;11.618;2023-02-23T07:32:45;22.40;;;9.23;;
2748;SDS011;1382;52.142;11.618;2023-02-23T07:35:12;21.90;;;9.97;;
2748;SDS011;1382;52.142;11.618;2023-02-23T07:37:40;18.87;;;10.13;;
2748;SDS011;1382;52.142;11.618;2023-02-23T07:40:07;22.07;;;9.90;;
2748;SDS011;1382;52.142;11.618;2023-02-23T07:42:34;17.80;;;9.20;;
2748;SDS011;1382;52.142;11.618;2023-02-23T07:45:01;15.70;;;8.10;;
2748;SDS011;1382;52.142;11.618;2023-02-23T07:47:28;18.97;;;10.77;;
2748;SDS011;1382;52.142;11.618;2023-02-23T07:49:56;16.43;;;10.60;;
2748;SDS011;1382;52.142;11.618;2023-02-23T07:52:23;18.00;;;12.17;;
2748;SDS011;1382;52.142;11.618;2023-02-23T07:54:51;21.73;;;14.33;;
2748;SDS011;1382;52.142;11.618;2023-02-23T07:57:18;20.60;;;13.00;;
2748;SDS011;1382;52.142;11.618;2023-02-23T07:59:47;21.10;;;12.50;;
2748;SDS011;1382;52.142;11.618;2023-02-23T08:02:14;26.67;;;16.50;;
2748;SDS011;1382;52.142;11.618;2023-02-23T08:04:41;23.60;;;15.40;;
2748;SDS011;1382;52.142;11.618;2023-02-23T08:07:08;26.63;;;13.73;;
2748;SDS011;1382;52.142;11.618;2023-02-23T08:09:35;27.00;;;15.67;;
2748;SDS011;1382;52.142;11.618;2023-02-23T08:12:03;23.93;;;15.60;;
2748;SDS011;1382;52.142;11.618;2023-02-23T08:14:31;27.37;;;15.73;;
2748;SDS011;1382;52.142;11.618;2023-02-23T08:16:57;24.80;;;15.50;;
2748;SDS011;1382;52.142;11.618;2023-02-23T08:19:24;28.47;;;17.07;;
2748;SDS011;1382;52.142;11.618;2023-02-23T08:21:51;31.37;;;16.53;;
2748;SDS011;1382;52.142;11.618;2023-02-23T08:24:18;27.87;;;17.57;;
2748;SDS011;1382;52.142;11.618;2023-02-23T08:26:45;27.07;;;16.80;;
2748;SDS011;1382;52.142;11.618;2023-02-23T08:29:13;32.83;;;17.50;;
2748;SDS011;1382;52.142;11.618;2023-02-23T08:31:39;33.93;;;19.73;;
2748;SDS011;1382;52.142;11.618;2023-02-23T08:34:06;28.17;;;17.80;;
2748;SDS011;1382;52.142;11.618;2023-02-23T08:36:33;32.93;;;19.07;;
2748;SDS011;1382;52.142;11.618;2023-02-23T08:39:00;31.43;;;18.57;;
2748;SDS011;1382;52.142;11.618;2023-02-23T08:41:27;28.93;;;20.80;;
2748;SDS011;1382;52.142;11.618;2023-02-23T08:43:54;33.70;;;20.90;;
2748;SDS011;1382;52.142;11.618;2023-02-23T08:46:22;32.67;;;21.87;;
2748;SDS011;1382;52.142;11.618;2023-02-23T08:48:48;35.93;;;23.50;;
2748;SDS011;1382;52.142;11.618;2023-02-23T08:51:15;40.20;;;22.63;;
2748;SDS011;1382;52.142;11.618;2023-02-23T08:53:42;40.60;;;23.73;;
2748;SDS011;1382;52.142;11.618;2023-02-23T08:56:09;41.17;;;22.93;;
2748;SDS011;1382;52.142;11.618;2023-02-23T08:58:36;48.93;;;30.90;;
2748;SDS011;1382;52.142;11.618;2023-02-23T09:01:04;50.90;;;30.00;;
2748;SDS011;1382;52.142;11.618;2023-02-23T09:03:32;52.17;;;31.77;;
2748;SDS011;1382;52.142;11.618;2023-02-23T09:06:05;54.47;;;33.07;;
2748;SDS011;1382;52.142;11.618;2023-02-23T09:08:33;47.80;;;32.80;;
2748;SDS011;1382;52.142;11.618;2023-02-23T09:11:00;51.33;;;34.67;;
2748;SDS011;1382;52.142;11.618;2023-02-23T09:13:27;59.43;;;33.20;;
2748;SDS011;1382;52.142;11.618;2023-02-23T09:15:54;57.30;;;33.90;;
2748;SDS011;1382;52.142;11.618;2023-02-23T09:18:21;57.83;;;36.50;;
2748;SDS011;1382;52.142;11.618;2023-02-23T09:20:49;61.70;;;35.50;;
2748;SDS011;1382;52.142;11.618;2023-02-23T09:23:16;55.47;;;35.30;;
2748;SDS011;1382;52.142;11.618;2023-02-23T09:25:43;67.20;;;39.47;;
2748;SDS011;1382;52.142;11.618;2023-02-23T09:28:10;56.47;;;37.93;;
2748;SDS011;1382;52.142;11.618;2023-02-23T09:30:38;69.47;;;40.77;;
2748;SDS011;1382;52.142;11.618;2023-02-23T09:33:05;67.63;;;40.43;;
2748;SDS011;1382;52.142;11.618;2023-02-23T09:35:32;72.80;;;42.03;;
2748;SDS011;1382;52.142;11.618;2023-02-23T09:38:01;72.57;;;42.23;;
2748;SDS011;1382;52.142;11.618;2023-02-23T09:40:30;68.27;;;41.83;;
2748;SDS011;1382;52.142;11.618;2023-02-23T09:43:03;69.63;;;42.37;;
2748;SDS011;1382;52.142;11.618;2023-02-23T09:45:37;72.23;;;45.40;;
2748;SDS011;1382;52.142;11.618;2023-02-23T09:48:08;75.97;;;42.77;;
2748;SDS011;1382;52.142;11.618;2023-02-23T09:50:38;69.27;;;46.53;;
2748;SDS011;1382;52.142;11.618;2023-02-23T09:53:12;68.63;;;42.40;;
2748;SDS011;1382;52.142;11.618;2023-02-23T09:55:50;78.50;;;46.43;;
2748;SDS011;1382;52.142;11.618;2023-02-23T09:58:19;74.77;;;45.53;;
2748;SDS011;1382;52.142;11.618;2023-02-23T10:00:50;71.00;;;44.30;;
2748;SDS011;1382;52.142;11.618;2023-02-23T10:03:30;68.87;;;44.00;;
2748;SDS011;1382;52.142;11.618;2023-02-23T10:06:00;84.83;;;46.27;;
2748;SDS011;1382;52.142;11.618;2023-02-23T10:08:39;75.83;;;47.20;;
2748;SDS011;1382;52.142;11.618;2023-02-23T10:11:15;76.73;;;48.03;;
2748;SDS011;1382;52.142;11.618;2023-02-23T10:13:50;79.20;;;46.60;;
2748;SDS011;1382;52.142;11.618;2023-02-23T10:16:24;74.27;;;46.00;;
2748;SDS011;1382;52.142;11.618;2023-02-23T10:19:02;78.73;;;46.90;;
2748;SDS011;1382;52.142;11.618;2023-02-23T10:21:37;79.87;;;49.40;;
2748;SDS011;1382;52.142;11.618;2023-02-23T10:24:08;77.17;;;45.80;;
2748;SDS011;1382;52.142;11.618;2023-02-23T10:26:38;83.90;;;51.57;;
2748;SDS011;1382;52.142;11.618;2023-02-23T10:29:14;81.33;;;50.77;;
2748;SDS011;1382;52.142;11.618;2023-02-23T10:31:48;88.00;;;50.00;;
2748;SDS011;1382;52.142;11.618;2023-02-23T10:34:19;86.73;;;50.63;;
2748;SDS011;1382;52.142;11.618;2023-02-23T10:36:49;89.77;;;51.70;;
2748;SDS011;1382;52.142;11.618;2023-02-23T10:39:22;80.77;;;47.30;;
2748;SDS011;1382;52.142;11.618;2023-02-23T10:41:49;83.63;;;50.07;;
2748;SDS011;1382;52.142;11.618;2023-02-23T10:44:17;82.93;;;51.50;;
2748;SDS011;1382;52.142;11.618;2023-02-23T10:46:48;86.80;;;51.77;;
2748;SDS011;1382;52.142;11.618;2023-02-23T10:49:21;85.80;;;53.37;;
2748;SDS011;1382;52.142;11.618;2023-02-23T10:51:52;89.53;;;52.83;;
2748;SDS011;1382;52.142;11.618;2023-02-23T10:54:37;92.47;;;54.60;;
2748;SDS011;1382;52.142;11.618;2023-02-23T10:57:06;79.43;;;49.20;;
2748;SDS011;1382;52.142;11.618;2023-02-23T10:59:33;82.43;;;50.20;;
2748;SDS011;1382;52.142;11.618;2023-02-23T11:02:12;86.67;;;53.97;;
2748;SDS011;1382;52.142;11.618;2023-02-23T11:04:50;91.23;;;52.00;;
2748;SDS011;1382;52.142;11.618;2023-02-23T11:07:20;86.40;;;49.23;;
2748;SDS011;1382;52.142;11.618;2023-02-23T11:09:50;83.93;;;49.77;;
2748;SDS011;1382;52.142;11.618;2023-02-23T11:12:18;85.40;;;50.80;;
2748;SDS011;1382;52.142;11.618;2023-02-23T11:14:47;83.10;;;48.67;;
2748;SDS011;1382;52.142;11.618;2023-02-23T11:17:23;91.20;;;54.70;;
2748;SDS011;1382;52.142;11.618;2023-02-23T11:19:56;85.93;;;56.13;;
2748;SDS011;1382;52.142;11.618;2023-02-23T11:22:31;98.97;;;53.13;;
2748;SDS011;1382;52.142;11.618;2023-02-23T11:25:03;96.53;;;51.73;;
2748;SDS011;1382;52.142;11.618;2023-02-23T11:27:43;95.37;;;57.50;;
2748;SDS011;1382;52.142;11.618;2023-02-23T11:30:12;95.00;;;55.90;;
2748;SDS011;1382;52.142;11.618;2023-02-23T11:32:39;96.33;;;58.03;;
2748;SDS011;1382;52.142;11.618;2023-02-23T11:35:11;100.77;;;54.97;;
2748;SDS011;1382;52.142;11.618;2023-02-23T11:37:46;94.70;;;50.17;;
2748;SDS011;1382;52.142;11.618;2023-02-23T11:40:18;102.57;;;55.70;;
2748;SDS011;1382;52.142;11.618;2023-02-23T11:42:50;122.93;;;57.60;;
2748;SDS011;1382;52.142;11.618;2023-02-23T11:45:19;114.20;;;64.87;;
2748;SDS011;1382;52.142;11.618;2023-02-23T11:47:48;111.90;;;57.67;;
2748;SDS011;1382;52.142;11.618;2023-02-23T11:50:20;103.00;;;55.60;;
2748;SDS011;1382;52.142;11.618;2023-02-23T11:52:51;107.10;;;58.03;;
2748;SDS011;1382;52.142;11.618;2023-02-23T11:55:24;102.30;;;57.20;;
2748;SDS011;1382;52.142;11.618;2023-02-23T11:57:51;111.77;;;57.53;;
2748;SDS011;1382;52.142;11.618;2023-02-23T12:00:22;94.23;;;57.37;;
2748;SDS011;1382;52.142;11.618;2023-02-23T12:02:52;97.87;;;56.30;;
2748;SDS011;1382;52.142;11.618;2023-02-23T12:05:23;106.70;;;59.13;;
2748;SDS011;1382;52.142;11.618;2023-02-23T12:07:53;109.93;;;57.77;;
2748;SDS011;1382;52.142;11.618;2023-02-23T12:10:27;100.57;;;56.87;;
2748;SDS011;1382;52.142;11.618;2023-02-23T12:13:00;110.73;;;61.27;;
2748;SDS011;1382;52.142;11.618;2023-02-23T12:15:35;107.77;;;55.30;;
2748;SDS011;1382;52.142;11.618;2023-02-23T12:18:09;94.30;;;55.07;;
2748;SDS011;1382;52.142;11.618;2023-02-23T12:20:41;99.83;;;53.83;;
2748;SDS011;1382;52.142;11.618;2023-02-23T12:23:13;100.17;;;56.87;;
2748;SDS011;1382;52.142;11.618;2023-02-23T12:25:46;105.80;;;56.87;;
2748;SDS011;1382;52.142;11.618;2023-02-23T12:28:18;104.23;;;58.07;;
2748;SDS011;1382;52.142;11.618;2023-02-23T12:30:49;107.37;;;56.13;;
2748;SDS011;1382;52.142;11.618;2023-02-23T12:33:19;103.17;;;52.53;;
2748;SDS011;1382;52.142;11.618;2023-02-23T12:35:51;104.93;;;55.17;;
2748;SDS011;1382;52.142;11.618;2023-02-23T12:38:23;98.73;;;54.67;;
2748;SDS011;1382;52.142;11.618;2023-02-23T12:40:57;95.07;;;53.17;;
2748;SDS011;1382;52.142;11.618;2023-02-23T12:43:31;103.03;;;55.60;;
2748;SDS011;1382;52.142;11.618;2023-02-23T12:46:04;106.47;;;54.43;;
2748;SDS011;1382;52.142;11.618;2023-02-23T12:48:37;105.73;;;54.33;;
2748;SDS011;1382;52.142;11.618;2023-02-23T12:51:14;91.70;;;53.57;;
2748;SDS011;1382;52.142;11.618;2023-02-23T12:53:46;86.87;;;50.60;;
2748;SDS011;1382;52.142;11.618;2023-02-23T12:56:20;92.10;;;50.30;;
2748;SDS011;1382;52.142;11.618;2023-02-23T12:58:58;80.20;;;51.60;;
2748;SDS011;1382;52.142;11.618;2023-02-23T13:01:41;86.13;;;50.27;;
2748;SDS011;1382;52.142;11.618;2023-02-23T13:04:17;102.83;;;53.80;;
2748;SDS011;1382;52.142;11.618;2023-02-23T13:06:58;99.07;;;52.17;;
2748;SDS011;1382;52.142;11.618;2023-02-23T13:09:35;81.77;;;49.77;;
2748;SDS011;1382;52.142;11.618;2023-02-23T13:12:13;82.10;;;48.20;;
2748;SDS011;1382;52.142;11.618;2023-02-23T13:14:54;85.43;;;50.03;;
2748;SDS011;1382;52.142;11.618;2023-02-23T13:17:36;74.80;;;49.50;;
2748;SDS011;1382;52.142;11.618;2023-02-23T13:20:11;75.27;;;47.57;;
2748;SDS011;1382;52.142;11.618;2023-02-23T13:22:44;74.93;;;48.20;;
2748;SDS011;1382;52.142;11.618;2023-02-23T13:25:19;73.77;;;47.90;;
2748;SDS011;1382;52.142;11.618;2023-02-23T13:27:56;86.03;;;51.17;;
2748;SDS011;1382;52.142;11.618;2023-02-23T13:30:25;78.63;;;49.83;;
2748;SDS011;1382;52.142;11.618;2023-02-23T13:32:53;75.10;;;48.23;;
2748;SDS011;1382;52.142;11.618;2023-02-23T13:35:20;85.07;;;49.27;;
2748;SDS011;1382;52.142;11.618;2023-02-23T13:37:48;84.53;;;49.50;;
2748;SDS011;1382;52.142;11.618;2023-02-23T13:40:22;87.83;;;52.57;;
2748;SDS011;1382;52.142;11.618;2023-02-23T13:43:02;92.00;;;51.80;;
2748;SDS011;1382;52.142;11.618;2023-02-23T13:45:40;93.53;;;50.63;;
2748;SDS011;1382;52.142;11.618;2023-02-23T13:48:18;93.10;;;51.53;;
2748;SDS011;1382;52.142;11.618;2023-02-23T13:50:56;95.63;;;50.13;;
2748;SDS011;1382;52.142;11.618;2023-02-23T13:53:32;99.50;;;52.70;;
2748;SDS011;1382;52.142;11.618;2023-02-23T13:56:04;91.03;;;54.10;;
2748;SDS011;1382;52.142;11.618;2023-02-23T13:58:35;102.03;;;52.23;;
2748;SDS011;1382;52.142;11.618;2023-02-23T14:01:13;93.50;;;50.30;;
2748;SDS011;1382;52.142;11.618;2023-02-23T14:03:44;96.43;;;54.87;;
2748;SDS011;1382;52.142;11.618;2023-02-23T14:06:17;78.43;;;47.87;;
2748;SDS011;1382;52.142;11.618;2023-02-23T14:08:45;87.50;;;50.50;;
2748;SDS011;1382;52.142;11.618;2023-02-23T14:14:03;89.43;;;50.77;;
2748;SDS011;1382;52.142;11.618;2023-02-23T14:16:30;90.37;;;50.20;;
2748;SDS011;1382;52.142;11.618;2023-02-23T14:19:05;79.77;;;46.40;;
2748;SDS011;1382;52.142;11.618;2023-02-23T14:21:40;87.30;;;50.27;;
2748;SDS011;1382;52.142;11.618;2023-02-23T14:24:15;86.33;;;51.30;;
2748;SDS011;1382;52.142;11.618;2023-02-23T14:30:15;86.23;;;44.73;;
2748;SDS011;1382;52.142;11.618;2023-02-23T14:32:47;88.80;;;50.20;;
2748;SDS011;1382;52.142;11.618;2023-02-23T14:35:34;87.27;;;50.67;;
2748;SDS011;1382;52.142;11.618;2023-02-23T14:38:03;89.33;;;50.73;;
2748;SDS011;1382;52.142;11.618;2023-02-23T14:40:37;97.33;;;51.40;;
2748;SDS011;1382;52.142;11.618;2023-02-23T14:46:09;89.57;;;49.93;;
2748;SDS011;1382;52.142;11.618;2023-02-23T14:48:44;92.40;;;53.13;;
2748;SDS011;1382;52.142;11.618;2023-02-23T14:51:23;103.37;;;52.70;;
2748;SDS011;1382;52.142;11.618;2023-02-23T14:53:59;90.73;;;51.37;;
2748;SDS011;1382;52.142;11.618;2023-02-23T14:56:26;94.40;;;49.27;;
2748;SDS011;1382;52.142;11.618;2023-02-23T14:59:13;87.77;;;45.73;;
2748;SDS011;1382;52.142;11.618;2023-02-23T15:01:45;86.70;;;49.77;;
2748;SDS011;1382;52.142;11.618;2023-02-23T15:04:15;76.13;;;46.60;;
2748;SDS011;1382;52.142;11.618;2023-02-23T15:06:43;79.53;;;42.43;;
2748;SDS011;1382;52.142;11.618;2023-02-23T15:09:13;83.00;;;43.00;;
2748;SDS011;1382;52.142;11.618;2023-02-23T15:11:43;89.90;;;44.77;;
2748;SDS011;1382;52.142;11.618;2023-02-23T15:14:12;78.50;;;42.60;;
2748;SDS011;1382;52.142;11.618;2023-02-23T15:16:54;82.63;;;43.07;;
2748;SDS011;1382;52.142;11.618;2023-02-23T15:19:31;78.13;;;43.63;;